Terminal Aerodrome Forecast
Issued by NWS Dodge City, KS

Home | Current Version | Previous Version | Graphics & Text | Print | Product List | Glossary Off
Versions: 1 2 3 4 5 6 7 8 9 10 11 12 13 14 15 16 17 18 19 20 21 22 23 24 25 26 27 28

000
FTUS43 KDDC 260228 AAD
TAFDDC
TAF AMD
KDDC 260228Z 2602/2624 01011KT 2SM BR OVC003
      TEMPO 2602/2606 1SM BR OVC002
     FM260600 35011KT 3SM BR OVC003
     FM261500 01011KT P6SM OVC008
     FM261700 01011KT P6SM BKN010
     FM261900 02011KT P6SM BKN020=

USA.gov is the U.S. government's official web portal to all federal, state and local government web resources and services.